sensor_id;sensor_type;location;lat;lon;timestamp;pressure;altitude;pressure_sealevel;temperature;humidity
37648;BME280;23490;53.656;10.076;2023-12-29T00:02:02;98827.41;;;-145.95;100.00
37648;BME280;23490;53.656;10.076;2023-12-29T00:04:27;98637.44;;;-145.95;100.00
37648;BME280;23490;53.656;10.076;2023-12-29T00:06:52;97142.88;;;-145.95;100.00
37648;BME280;23490;53.656;10.076;2023-12-29T00:09:18;90581.91;;;-145.95;100.00
37648;BME280;23490;53.656;10.076;2023-12-29T00:11:50;58848.91;;;-145.95;100.00
37648;BME280;23490;53.656;10.076;2023-12-29T00:14:15;42430.34;;;-145.95;100.00
37648;BME280;23490;53.656;10.076;2023-12-29T00:16:41;33602.66;;;-145.95;100.00
37648;BME280;23490;53.656;10.076;2023-12-29T00:19:06;25315.47;;;-145.95;100.00
37648;BME280;23490;53.656;10.076;2023-12-29T00:21:31;18855.44;;;-145.95;100.00
37648;BME280;23490;53.656;10.076;2023-12-29T00:23:57;17823.00;;;-145.95;100.00
37648;BME280;23490;53.656;10.076;2023-12-29T00:26:22;11635.09;;;-145.95;100.00
37648;BME280;23490;53.656;10.076;2023-12-29T00:28:48;9060.22;;;-145.95;100.00
37648;BME280;23490;53.656;10.076;2023-12-29T00:31:14;6744.56;;;-145.95;100.00
37648;BME280;23490;53.656;10.076;2023-12-29T00:33:41;6744.56;;;-145.95;100.00
37648;BME280;23490;53.656;10.076;2023-12-29T00:36:07;6744.56;;;-145.95;100.00
37648;BME280;23490;53.656;10.076;2023-12-29T00:38:32;5201.69;;;-145.95;100.00
37648;BME280;23490;53.656;10.076;2023-12-29T00:40:57;2888.72;;;-145.95;100.00
37648;BME280;23490;53.656;10.076;2023-12-29T00:43:23;5715.88;;;-145.95;100.00
37648;BME280;23490;53.656;10.076;2023-12-29T00:45:49;3145.63;;;-145.95;100.00
37648;BME280;23490;53.656;10.076;2023-12-29T00:48:14;3402.56;;;-145.95;100.00
37648;BME280;23490;53.656;10.076;2023-12-29T00:50:39;3402.56;;;-145.95;100.00
37648;BME280;23490;53.656;10.076;2023-12-29T00:53:04;5458.78;;;-145.95;100.00
37648;BME280;23490;53.656;10.076;2023-12-29T00:55:30;3916.50;;;-145.95;100.00
37648;BME280;23490;53.656;10.076;2023-12-29T00:57:55;3145.63;;;-145.95;100.00
37648;BME280;23490;53.656;10.076;2023-12-29T01:00:20;3145.63;;;-145.95;100.00
37648;BME280;23490;53.656;10.076;2023-12-29T01:02:46;2374.94;;;-145.95;100.00
37648;BME280;23490;53.656;10.076;2023-12-29T01:05:15;1347.66;;;-145.95;100.00
37648;BME280;23490;53.656;10.076;2023-12-29T01:07:41;1090.88;;;-145.95;100.00
37648;BME280;23490;53.656;10.076;2023-12-29T01:10:07;1347.66;;;-145.95;100.00
37648;BME280;23490;53.656;10.076;2023-12-29T01:12:32;2888.72;;;-145.95;100.00
37648;BME280;23490;53.656;10.076;2023-12-29T01:14:58;5458.78;;;-145.95;100.00
37648;BME280;23490;53.656;10.076;2023-12-29T01:17:23;4944.59;;;-145.95;100.00
37648;BME280;23490;53.656;10.076;2023-12-29T01:19:48;7516.25;;;-145.95;100.00
37648;BME280;23490;53.656;10.076;2023-12-29T01:22:14;4430.50;;;-145.95;100.00
37648;BME280;23490;53.656;10.076;2023-12-29T01:24:39;4687.53;;;-145.95;100.00
37648;BME280;23490;53.656;10.076;2023-12-29T01:27:04;3916.50;;;-145.95;100.00
37648;BME280;23490;53.656;10.076;2023-12-29T01:29:30;4173.50;;;-145.95;100.00
37648;BME280;23490;53.656;10.076;2023-12-29T01:31:55;2374.94;;;-145.95;100.00
37648;BME280;23490;53.656;10.076;2023-12-29T01:34:21;-449.34;;;-145.95;100.00
37648;BME280;23490;53.656;10.076;2023-12-29T01:36:46;-2758.31;;;-145.95;100.00
37648;BME280;23490;53.656;10.076;2023-12-29T01:39:11;-4040.38;;;-145.95;100.00
37648;BME280;23490;53.656;10.076;2023-12-29T01:41:37;-6090.66;;;-145.95;100.00
37648;BME280;23490;53.656;10.076;2023-12-29T01:44:19;-7115.28;;;-145.95;100.00
37648;BME280;23490;53.656;10.076;2023-12-29T01:46:45;-7883.56;;;-145.95;100.00
37648;BME280;23490;53.656;10.076;2023-12-29T01:49:16;-7627.50;;;-145.95;100.00
37648;BME280;23490;53.656;10.076;2023-12-29T01:51:44;-7371.41;;;-145.95;100.00
37648;BME280;23490;53.656;10.076;2023-12-29T01:54:12;-7627.50;;;-145.95;100.00
37648;BME280;23490;53.656;10.076;2023-12-29T01:56:38;-7627.50;;;-145.95;100.00
37648;BME280;23490;53.656;10.076;2023-12-29T01:59:05;-6346.84;;;-145.95;100.00
37648;BME280;23490;53.656;10.076;2023-12-29T02:01:30;-5578.19;;;-145.95;100.00
37648;BME280;23490;53.656;10.076;2023-12-29T02:03:56;-5578.19;;;-145.95;100.00
37648;BME280;23490;53.656;10.076;2023-12-29T02:06:22;-5578.19;;;-145.95;100.00
37648;BME280;23490;53.656;10.076;2023-12-29T02:08:49;-3527.63;;;-145.95;100.00
37648;BME280;23490;53.656;10.076;2023-12-29T02:11:14;-1988.84;;;-145.95;100.00
37648;BME280;23490;53.656;10.076;2023-12-29T02:13:39;63.97;;;-145.95;100.00
37648;BME280;23490;53.656;10.076;2023-12-29T02:16:08;3659.53;;;-145.95;100.00
37648;BME280;23490;53.656;10.076;2023-12-29T02:18:36;4687.53;;;-145.95;100.00
37648;BME280;23490;53.656;10.076;2023-12-29T02:21:03;6230.19;;;-145.95;100.00
37648;BME280;23490;53.656;10.076;2023-12-29T02:23:28;6230.19;;;-145.95;100.00
37648;BME280;23490;53.656;10.076;2023-12-29T02:25:58;8030.84;;;-145.95;100.00
37648;BME280;23490;53.656;10.076;2023-12-29T02:28:27;11377.53;;;-145.95;100.00
37648;BME280;23490;53.656;10.076;2023-12-29T02:31:07;16532.91;;;-145.95;100.00
37648;BME280;23490;53.656;10.076;2023-12-29T02:33:38;16790.88;;;-145.95;100.00
37648;BME280;23490;53.656;10.076;2023-12-29T02:36:05;18597.31;;;-145.95;100.00
37648;BME280;23490;53.656;10.076;2023-12-29T02:38:31;19371.78;;;-145.95;100.00
37648;BME280;23490;53.656;10.076;2023-12-29T02:40:58;21696.31;;;-145.95;100.00
37648;BME280;23490;53.656;10.076;2023-12-29T02:43:23;23505.41;;;-145.95;100.00
37648;BME280;23490;53.656;10.076;2023-12-29T02:45:48;23505.41;;;-145.95;100.00
37648;BME280;23490;53.656;10.076;2023-12-29T02:48:14;20663.00;;;-145.95;100.00
37648;BME280;23490;53.656;10.076;2023-12-29T02:50:39;22213.09;;;-145.95;100.00
37648;BME280;23490;53.656;10.076;2023-12-29T02:53:04;20663.00;;;-145.95;100.00
37648;BME280;23490;53.656;10.076;2023-12-29T02:55:30;21179.59;;;-145.95;100.00
37648;BME280;23490;53.656;10.076;2023-12-29T02:57:55;18597.31;;;-145.95;100.00
37648;BME280;23490;53.656;10.076;2023-12-29T03:00:20;19371.78;;;-145.95;100.00
37648;BME280;23490;53.656;10.076;2023-12-29T03:02:46;18597.31;;;-145.95;100.00
37648;BME280;23490;53.656;10.076;2023-12-29T03:05:11;19888.19;;;-145.95;100.00
37648;BME280;23490;53.656;10.076;2023-12-29T03:07:36;19371.78;;;-145.95;100.00
37648;BME280;23490;53.656;10.076;2023-12-29T03:10:02;23763.94;;;-145.95;100.00
37648;BME280;23490;53.656;10.076;2023-12-29T03:12:27;26350.25;;;-145.95;100.00
37648;BME280;23490;53.656;10.076;2023-12-29T03:14:54;26867.75;;;-145.95;100.00
37648;BME280;23490;53.656;10.076;2023-12-29T03:17:19;33861.97;;;-145.95;100.00
37648;BME280;23490;53.656;10.076;2023-12-29T03:19:45;36975.22;;;-145.95;100.00
37648;BME280;23490;53.656;10.076;2023-12-29T03:22:10;39052.31;;;-145.95;100.00
37648;BME280;23490;53.656;10.076;2023-12-29T03:24:37;44770.97;;;-145.95;100.00
37648;BME280;23490;53.656;10.076;2023-12-29T03:27:02;42690.34;;;-145.95;100.00
37648;BME280;23490;53.656;10.076;2023-12-29T03:29:28;44510.81;;;-145.95;100.00
37648;BME280;23490;53.656;10.076;2023-12-29T03:31:53;51020.59;;;-145.95;100.00
37648;BME280;23490;53.656;10.076;2023-12-29T03:34:18;52324.06;;;-145.95;100.00
37648;BME280;23490;53.656;10.076;2023-12-29T03:36:45;56759.59;;;-145.95;100.00
37648;BME280;23490;53.656;10.076;2023-12-29T03:39:10;59632.72;;;-145.95;100.00
37648;BME280;23490;53.656;10.076;2023-12-29T03:41:35;60678.09;;;-145.95;100.00
37648;BME280;23490;53.656;10.076;2023-12-29T03:44:01;61985.28;;;-145.95;100.00
37648;BME280;23490;53.656;10.076;2023-12-29T03:46:26;54671.56;;;-145.95;100.00
37648;BME280;23490;53.656;10.076;2023-12-29T03:48:51;55454.41;;;-145.95;100.00
37648;BME280;23490;53.656;10.076;2023-12-29T03:51:18;53888.88;;;-145.95;100.00
37648;BME280;23490;53.656;10.076;2023-12-29T03:53:43;51541.91;;;-145.95;100.00
37648;BME280;23490;53.656;10.076;2023-12-29T03:56:14;48936.09;;;-145.95;100.00
37648;BME280;23490;53.656;10.076;2023-12-29T03:58:41;51541.91;;;-145.95;100.00
37648;BME280;23490;53.656;10.076;2023-12-29T04:01:16;49978.19;;;-145.95;100.00
37648;BME280;23490;53.656;10.076;2023-12-29T04:03:42;51802.59;;;-145.95;100.00
37648;BME280;23490;53.656;10.076;2023-12-29T04:06:08;52584.81;;;-145.95;100.00
37648;BME280;23490;53.656;10.076;2023-12-29T04:08:34;51541.91;;;-145.95;100.00
37648;BME280;23490;53.656;10.076;2023-12-29T04:11:00;52063.31;;;-145.95;100.00
37648;BME280;23490;53.656;10.076;2023-12-29T04:13:26;51281.25;;;-145.95;100.00
37648;BME280;23490;53.656;10.076;2023-12-29T04:15:51;52063.31;;;-145.95;100.00
37648;BME280;23490;53.656;10.076;2023-12-29T04:18:17;50499.34;;;-145.95;100.00
37648;BME280;23490;53.656;10.076;2023-12-29T04:20:42;49717.63;;;-145.95;100.00
37648;BME280;23490;53.656;10.076;2023-12-29T04:23:08;54410.63;;;-145.95;100.00
37648;BME280;23490;53.656;10.076;2023-12-29T04:25:34;54671.56;;;-145.95;100.00
37648;BME280;23490;53.656;10.076;2023-12-29T04:27:59;52584.81;;;-145.95;100.00
37648;BME280;23490;53.656;10.076;2023-12-29T04:30:25;62246.78;;;-145.95;100.00
37648;BME280;23490;53.656;10.076;2023-12-29T04:32:50;68790.72;;;-145.95;100.00
37648;BME280;23490;53.656;10.076;2023-12-29T04:35:16;74034.91;;;-145.95;100.00
37648;BME280;23490;53.656;10.076;2023-12-29T04:37:44;65909.84;;;-145.95;100.00
37648;BME280;23490;53.656;10.076;2023-12-29T04:40:11;82701.28;;;-145.95;100.00
37648;BME280;23490;53.656;10.076;2023-12-29T04:42:36;69838.91;;;-145.95;100.00
37648;BME280;23490;53.656;10.076;2023-12-29T04:45:03;70887.41;;;-145.95;100.00
37648;BME280;23490;53.656;10.076;2023-12-29T04:47:28;70887.41;;;-145.95;100.00
37648;BME280;23490;53.656;10.076;2023-12-29T04:49:54;71674.03;;;-145.95;100.00
37648;BME280;23490;53.656;10.076;2023-12-29T04:52:19;69052.72;;;-145.95;100.00
37648;BME280;23490;53.656;10.076;2023-12-29T04:54:44;65648.06;;;-145.95;100.00
37648;BME280;23490;53.656;10.076;2023-12-29T04:57:10;69314.78;;;-145.95;100.00
37648;BME280;23490;53.656;10.076;2023-12-29T04:59:35;67219.03;;;-145.95;100.00
37648;BME280;23490;53.656;10.076;2023-12-29T05:02:00;69052.72;;;-145.95;100.00
37648;BME280;23490;53.656;10.076;2023-12-29T05:04:26;62508.28;;;-145.95;100.00
37648;BME280;23490;53.656;10.076;2023-12-29T05:06:51;63292.97;;;-145.95;100.00
37648;BME280;23490;53.656;10.076;2023-12-29T05:09:17;61985.28;;;-145.95;100.00
37648;BME280;23490;53.656;10.076;2023-12-29T05:11:42;61985.28;;;-145.95;100.00
37648;BME280;23490;53.656;10.076;2023-12-29T05:14:08;60155.38;;;-145.95;100.00
37648;BME280;23490;53.656;10.076;2023-12-29T05:16:33;56237.44;;;-145.95;100.00
37648;BME280;23490;53.656;10.076;2023-12-29T05:18:58;53628.00;;;-145.95;100.00
37648;BME280;23490;53.656;10.076;2023-12-29T05:21:24;52584.81;;;-145.95;100.00
37648;BME280;23490;53.656;10.076;2023-12-29T05:23:51;54671.56;;;-145.95;100.00
37648;BME280;23490;53.656;10.076;2023-12-29T05:26:16;50759.97;;;-145.95;100.00
37648;BME280;23490;53.656;10.076;2023-12-29T05:28:41;48675.63;;;-145.95;100.00
37648;BME280;23490;53.656;10.076;2023-12-29T05:31:07;47633.94;;;-145.95;100.00
37648;BME280;23490;53.656;10.076;2023-12-29T05:33:33;46072.00;;;-145.95;100.00
37648;BME280;23490;53.656;10.076;2023-12-29T05:35:59;46072.00;;;-145.95;100.00
37648;BME280;23490;53.656;10.076;2023-12-29T05:38:25;42430.34;;;-145.95;100.00
37648;BME280;23490;53.656;10.076;2023-12-29T05:40:50;41390.59;;;-145.95;100.00
37648;BME280;23490;53.656;10.076;2023-12-29T05:43:16;39052.31;;;-145.95;100.00
37648;BME280;23490;53.656;10.076;2023-12-29T05:45:41;36196.63;;;-145.95;100.00
37648;BME280;23490;53.656;10.076;2023-12-29T05:48:07;33861.97;;;-145.95;100.00
37648;BME280;23490;53.656;10.076;2023-12-29T05:50:33;36196.63;;;-145.95;100.00
37648;BME280;23490;53.656;10.076;2023-12-29T05:52:58;34899.41;;;-145.95;100.00
37648;BME280;23490;53.656;10.076;2023-12-29T05:55:23;32565.66;;;-145.95;100.00
37648;BME280;23490;53.656;10.076;2023-12-29T05:57:49;31528.94;;;-145.95;100.00
37648;BME280;23490;53.656;10.076;2023-12-29T06:00:14;33861.97;;;-145.95;100.00
37648;BME280;23490;53.656;10.076;2023-12-29T06:02:41;34121.28;;;-145.95;100.00
37648;BME280;23490;53.656;10.076;2023-12-29T06:05:07;35418.22;;;-145.95;100.00
37648;BME280;23490;53.656;10.076;2023-12-29T06:07:33;35937.16;;;-145.95;100.00
37648;BME280;23490;53.656;10.076;2023-12-29T06:09:59;35677.69;;;-145.95;100.00
37648;BME280;23490;53.656;10.076;2023-12-29T06:12:24;36196.63;;;-145.95;100.00
37648;BME280;23490;53.656;10.076;2023-12-29T06:14:49;35937.16;;;-145.95;100.00
37648;BME280;23490;53.656;10.076;2023-12-29T06:17:15;36196.63;;;-145.95;100.00
37648;BME280;23490;53.656;10.076;2023-12-29T06:19:40;35418.22;;;-145.95;100.00
37648;BME280;23490;53.656;10.076;2023-12-29T06:22:06;34640.00;;;-145.95;100.00
37648;BME280;23490;53.656;10.076;2023-12-29T06:24:36;34899.41;;;-145.95;100.00
37648;BME280;23490;53.656;10.076;2023-12-29T06:27:01;36196.63;;;-145.95;100.00
37648;BME280;23490;53.656;10.076;2023-12-29T06:29:27;34380.66;;;-145.95;100.00
37648;BME280;23490;53.656;10.076;2023-12-29T06:31:53;34121.28;;;-145.95;100.00
37648;BME280;23490;53.656;10.076;2023-12-29T06:34:18;33343.38;;;-145.95;100.00
37648;BME280;23490;53.656;10.076;2023-12-29T06:36:43;32824.88;;;-145.95;100.00
37648;BME280;23490;53.656;10.076;2023-12-29T06:39:09;33602.66;;;-145.95;100.00
37648;BME280;23490;53.656;10.076;2023-12-29T06:41:36;33602.66;;;-145.95;100.00
37648;BME280;23490;53.656;10.076;2023-12-29T06:44:01;33343.38;;;-145.95;100.00
37648;BME280;23490;53.656;10.076;2023-12-29T06:46:26;30492.56;;;-145.95;100.00
37648;BME280;23490;53.656;10.076;2023-12-29T06:48:51;31010.72;;;-145.95;100.00
37648;BME280;23490;53.656;10.076;2023-12-29T06:51:17;31269.81;;;-145.95;100.00
37648;BME280;23490;53.656;10.076;2023-12-29T06:53:45;31788.09;;;-145.95;100.00
37648;BME280;23490;53.656;10.076;2023-12-29T06:56:16;31269.81;;;-145.95;100.00
37648;BME280;23490;53.656;10.076;2023-12-29T06:58:43;30492.56;;;-145.95;100.00
37648;BME280;23490;53.656;10.076;2023-12-29T07:01:08;32047.25;;;-145.95;100.00
37648;BME280;23490;53.656;10.076;2023-12-29T07:03:34;33343.38;;;-145.95;100.00
37648;BME280;23490;53.656;10.076;2023-12-29T07:06:02;36456.13;;;-145.95;100.00
37648;BME280;23490;53.656;10.076;2023-12-29T07:08:28;38013.59;;;-145.95;100.00
37648;BME280;23490;53.656;10.076;2023-12-29T07:10:53;39052.31;;;-145.95;100.00
37648;BME280;23490;53.656;10.076;2023-12-29T07:13:19;39831.56;;;-145.95;100.00
37648;BME280;23490;53.656;10.076;2023-12-29T07:15:47;43210.38;;;-145.95;100.00
37648;BME280;23490;53.656;10.076;2023-12-29T07:18:16;45031.13;;;-145.95;100.00
37648;BME280;23490;53.656;10.076;2023-12-29T07:20:42;48675.63;;;-145.95;100.00
37648;BME280;23490;53.656;10.076;2023-12-29T07:23:07;52584.81;;;-145.95;100.00
37648;BME280;23490;53.656;10.076;2023-12-29T07:25:33;53367.19;;;-145.95;100.00
37648;BME280;23490;53.656;10.076;2023-12-29T07:27:58;57281.78;;;-145.95;100.00
37648;BME280;23490;53.656;10.076;2023-12-29T07:30:23;57020.69;;;-145.95;100.00
37648;BME280;23490;53.656;10.076;2023-12-29T07:32:49;61985.28;;;-145.95;100.00
37648;BME280;23490;53.656;10.076;2023-12-29T07:35:14;62769.81;;;-145.95;100.00
37648;BME280;23490;53.656;10.076;2023-12-29T07:37:43;63292.97;;;-145.95;100.00
37648;BME280;23490;53.656;10.076;2023-12-29T07:40:12;65386.31;;;-145.95;100.00
37648;BME280;23490;53.656;10.076;2023-12-29T07:42:39;64077.81;;;-145.95;100.00
37648;BME280;23490;53.656;10.076;2023-12-29T07:45:05;63816.19;;;-145.95;100.00
37648;BME280;23490;53.656;10.076;2023-12-29T07:47:31;65909.84;;;-145.95;100.00
37648;BME280;23490;53.656;10.076;2023-12-29T07:49:56;65386.31;;;-145.95;100.00
37648;BME280;23490;53.656;10.076;2023-12-29T07:52:21;68266.72;;;-145.95;100.00
37648;BME280;23490;53.656;10.076;2023-12-29T07:54:47;71936.25;;;-145.95;100.00
37648;BME280;23490;53.656;10.076;2023-12-29T07:57:13;77187.31;;;-145.95;100.00
37648;BME280;23490;53.656;10.076;2023-12-29T07:59:39;80893.13;;;-145.95;100.00
37648;BME280;23490;53.656;10.076;2023-12-29T08:02:04;81608.03;;;-145.95;100.00
37648;BME280;23490;53.656;10.076;2023-12-29T08:04:30;82473.16;;;-145.95;100.00
37648;BME280;23490;53.656;10.076;2023-12-29T08:06:55;81799.13;;;-145.95;100.00
37648;BME280;23490;53.656;10.076;2023-12-29T08:09:20;88242.59;;;-145.95;100.00
37648;BME280;23490;53.656;10.076;2023-12-29T08:11:45;88127.31;;;-145.95;100.00
37648;BME280;23490;53.656;10.076;2023-12-29T08:14:11;88448.44;;;-145.95;100.00
37648;BME280;23490;53.656;10.076;2023-12-29T08:16:40;89317.31;;;-145.95;100.00
37648;BME280;23490;53.656;10.076;2023-12-29T08:19:06;90060.78;;;-145.95;100.00
37648;BME280;23490;53.656;10.076;2023-12-29T08:21:32;91673.84;;;-145.95;100.00
37648;BME280;23490;53.656;10.076;2023-12-29T08:23:57;92353.91;;;-145.95;100.00
37648;BME280;23490;53.656;10.076;2023-12-29T08:26:22;93067.09;;;-145.95;100.00
37648;BME280;23490;53.656;10.076;2023-12-29T08:28:48;95011.59;;;-145.95;100.00
37648;BME280;23490;53.656;10.076;2023-12-29T08:31:14;95003.31;;;-145.95;100.00
37648;BME280;23490;53.656;10.076;2023-12-29T08:33:39;95112.66;;;-145.95;100.00
37648;BME280;23490;53.656;10.076;2023-12-29T08:36:05;95450.94;;;-145.95;100.00
37648;BME280;23490;53.656;10.076;2023-12-29T08:38:32;95640.72;;;-145.95;100.00
37648;BME280;23490;53.656;10.076;2023-12-29T08:40:58;95768.63;;;-145.95;100.00
37648;BME280;23490;53.656;10.076;2023-12-29T08:43:23;95822.28;;;-145.95;100.00
37648;BME280;23490;53.656;10.076;2023-12-29T08:45:48;96288.56;;;-145.95;100.00
37648;BME280;23490;53.656;10.076;2023-12-29T08:48:14;96329.81;;;-145.95;100.00
37648;BME280;23490;53.656;10.076;2023-12-29T08:50:39;96591.88;;;-145.95;100.00
37648;BME280;23490;53.656;10.076;2023-12-29T08:53:04;97489.63;;;-145.95;100.00
37648;BME280;23490;53.656;10.076;2023-12-29T08:55:30;97935.50;;;-145.95;100.00
37648;BME280;23490;53.656;10.076;2023-12-29T08:57:57;98253.44;;;-145.95;100.00
37648;BME280;23490;53.656;10.076;2023-12-29T09:00:22;98108.91;;;-145.95;100.00
37648;BME280;23490;53.656;10.076;2023-12-29T09:02:48;98296.78;;;-145.95;100.00
37648;BME280;23490;53.656;10.076;2023-12-29T09:05:13;98315.38;;;-145.95;100.00
37648;BME280;23490;53.656;10.076;2023-12-29T09:07:39;98420.66;;;-145.95;100.00
37648;BME280;23490;53.656;10.076;2023-12-29T09:10:06;98523.88;;;-145.95;100.00
37648;BME280;23490;53.656;10.076;2023-12-29T09:12:37;98546.59;;;-145.95;100.00
37648;BME280;23490;53.656;10.076;2023-12-29T09:15:07;98637.44;;;-145.95;100.00
37648;BME280;23490;53.656;10.076;2023-12-29T09:17:33;98612.66;;;-145.95;100.00
37648;BME280;23490;53.656;10.076;2023-12-29T09:19:58;98486.72;;;-145.95;100.00
37648;BME280;23490;53.656;10.076;2023-12-29T09:22:24;98397.94;;;-145.95;100.00
37648;BME280;23490;53.656;10.076;2023-12-29T09:24:49;97068.59;;;-145.95;100.00
37648;BME280;23490;53.656;10.076;2023-12-29T09:27:15;92885.69;;;-145.95;100.00
37648;BME280;23490;53.656;10.076;2023-12-29T09:29:41;83393.97;;;-145.95;100.00
37648;BME280;23490;53.656;10.076;2023-12-29T09:32:06;80145.47;;;-145.95;100.00
37648;BME280;23490;53.656;10.076;2023-12-29T09:34:32;66171.63;;;-145.95;100.00
37648;BME280;23490;53.656;10.076;2023-12-29T09:36:57;61462.34;;;-145.95;100.00
37648;BME280;23490;53.656;10.076;2023-12-29T09:39:22;58587.66;;;-145.95;100.00
37648;BME280;23490;53.656;10.076;2023-12-29T09:41:51;50759.97;;;-145.95;100.00
37648;BME280;23490;53.656;10.076;2023-12-29T09:44:20;50238.75;;;-145.95;100.00
37648;BME280;23490;53.656;10.076;2023-12-29T09:46:49;52063.31;;;-145.95;100.00
37648;BME280;23490;53.656;10.076;2023-12-29T09:49:16;45811.75;;;-145.95;100.00
37648;BME280;23490;53.656;10.076;2023-12-29T09:51:43;46592.56;;;-145.95;100.00
37648;BME280;23490;53.656;10.076;2023-12-29T09:54:10;48675.63;;;-145.95;100.00
37648;BME280;23490;53.656;10.076;2023-12-29T09:56:37;49457.09;;;-145.95;100.00
37648;BME280;23490;53.656;10.076;2023-12-29T09:59:03;47373.56;;;-145.95;100.00
37648;BME280;23490;53.656;10.076;2023-12-29T10:01:29;47113.22;;;-145.95;100.00
37648;BME280;23490;53.656;10.076;2023-12-29T10:03:58;47373.56;;;-145.95;100.00
37648;BME280;23490;53.656;10.076;2023-12-29T10:06:25;42430.34;;;-145.95;100.00
37648;BME280;23490;53.656;10.076;2023-12-29T10:08:51;43210.38;;;-145.95;100.00
37648;BME280;23490;53.656;10.076;2023-12-29T10:11:18;47373.56;;;-145.95;100.00
37648;BME280;23490;53.656;10.076;2023-12-29T10:13:49;49978.19;;;-145.95;100.00
37648;BME280;23490;53.656;10.076;2023-12-29T10:16:28;53367.19;;;-145.95;100.00
37648;BME280;23490;53.656;10.076;2023-12-29T10:21:48;59371.44;;;-145.95;100.00
37648;BME280;23490;53.656;10.076;2023-12-29T10:24:21;60939.50;;;-145.95;100.00
37648;BME280;23490;53.656;10.076;2023-12-29T10:26:47;60939.50;;;-145.95;100.00
37648;BME280;23490;53.656;10.076;2023-12-29T10:29:13;58587.66;;;-145.95;100.00
37648;BME280;23490;53.656;10.076;2023-12-29T10:31:39;64862.84;;;-145.95;100.00
37648;BME280;23490;53.656;10.076;2023-12-29T10:34:21;67480.91;;;-145.95;100.00
37648;BME280;23490;53.656;10.076;2023-12-29T10:36:53;70887.41;;;-145.95;100.00
37648;BME280;23490;53.656;10.076;2023-12-29T10:39:19;78205.25;;;-145.95;100.00
37648;BME280;23490;53.656;10.076;2023-12-29T10:41:44;80009.94;;;-145.95;100.00
37648;BME280;23490;53.656;10.076;2023-12-29T10:44:10;83942.88;;;-145.95;100.00
37648;BME280;23490;53.656;10.076;2023-12-29T10:46:35;86155.84;;;-145.95;100.00
37648;BME280;23490;53.656;10.076;2023-12-29T10:49:11;88878.75;;;-145.95;100.00
37648;BME280;23490;53.656;10.076;2023-12-29T10:51:38;92551.78;;;-145.95;100.00
37648;BME280;23490;53.656;10.076;2023-12-29T10:54:04;93817.53;;;-145.95;100.00
37648;BME280;23490;53.656;10.076;2023-12-29T10:56:33;93879.41;;;-145.95;100.00
37648;BME280;23490;53.656;10.076;2023-12-29T10:59:02;94238.19;;;-145.95;100.00
37648;BME280;23490;53.656;10.076;2023-12-29T11:01:29;95762.44;;;-145.95;100.00
37648;BME280;23490;53.656;10.076;2023-12-29T11:04:01;95818.16;;;-145.95;100.00
37648;BME280;23490;53.656;10.076;2023-12-29T11:06:28;95632.47;;;-145.95;100.00
37648;BME280;23490;53.656;10.076;2023-12-29T11:08:54;95149.78;;;-145.95;100.00
37648;BME280;23490;53.656;10.076;2023-12-29T11:11:21;94572.28;;;-145.95;100.00
37648;BME280;23490;53.656;10.076;2023-12-29T11:13:46;91628.53;;;-145.95;100.00
37648;BME280;23490;53.656;10.076;2023-12-29T11:16:14;92349.78;;;-145.95;100.00
37648;BME280;23490;53.656;10.076;2023-12-29T11:18:43;91888.16;;;-145.95;100.00
37648;BME280;23490;53.656;10.076;2023-12-29T11:21:10;92494.06;;;-145.95;100.00
37648;BME280;23490;53.656;10.076;2023-12-29T11:23:36;89871.28;;;-145.95;100.00
37648;BME280;23490;53.656;10.076;2023-12-29T11:26:02;90960.97;;;-145.95;100.00
37648;BME280;23490;53.656;10.076;2023-12-29T11:28:28;90448.00;;;-145.95;100.00
37648;BME280;23490;53.656;10.076;2023-12-29T11:30:54;88639.91;;;-145.95;100.00
37648;BME280;23490;53.656;10.076;2023-12-29T11:33:26;88349.63;;;-145.95;100.00
37648;BME280;23490;53.656;10.076;2023-12-29T11:35:59;88164.34;;;-145.95;100.00
37648;BME280;23490;53.656;10.076;2023-12-29T11:38:54;89269.97;;;-145.95;100.00
37648;BME280;23490;53.656;10.076;2023-12-29T11:41:35;89821.88;;;-145.95;100.00
37648;BME280;23490;53.656;10.076;2023-12-29T11:44:03;89593.25;;;-145.95;100.00
37648;BME280;23490;53.656;10.076;2023-12-29T11:46:36;89469.72;;;-145.95;100.00
37648;BME280;23490;53.656;10.076;2023-12-29T11:49:02;88576.09;;;-145.95;100.00
37648;BME280;23490;53.656;10.076;2023-12-29T11:54:03;87933.81;;;-145.95;100.00
37648;BME280;23490;53.656;10.076;2023-12-29T11:56:35;89300.84;;;-145.95;100.00
37648;BME280;23490;53.656;10.076;2023-12-29T11:59:20;87649.78;;;-145.95;100.00
37648;BME280;23490;53.656;10.076;2023-12-29T12:01:48;88921.97;;;-145.95;100.00
37648;BME280;23490;53.656;10.076;2023-12-29T12:07:16;91669.72;;;-145.95;100.00
37648;BME280;23490;53.656;10.076;2023-12-29T12:09:42;91541.97;;;-145.95;100.00
37648;BME280;23490;53.656;10.076;2023-12-29T12:12:07;93067.09;;;-145.95;100.00
37648;BME280;23490;53.656;10.076;2023-12-29T12:14:46;93714.44;;;-145.95;100.00
37648;BME280;23490;53.656;10.076;2023-12-29T12:17:26;93710.34;;;-145.95;100.00
37648;BME280;23490;53.656;10.076;2023-12-29T12:19:56;94551.66;;;-145.95;100.00
37648;BME280;23490;53.656;10.076;2023-12-29T12:22:22;94683.66;;;-145.95;100.00
37648;BME280;23490;53.656;10.076;2023-12-29T12:24:54;95261.16;;;-145.95;100.00
37648;BME280;23490;53.656;10.076;2023-12-29T12:27:20;96020.34;;;-145.95;100.00